sensor_id;sensor_type;location;lat;lon;timestamp;pressure;altitude;pressure_sealevel;temperature
85122;BMP280;75480;52.260;20.916;2024-03-07T00:01:28;101279.84;;;4.53
85122;BMP280;75480;52.260;20.916;2024-03-07T00:02:58;101276.28;;;4.56
85122;BMP280;75480;52.260;20.916;2024-03-07T00:04:29;101286.75;;;4.61
85122;BMP280;75480;52.260;20.916;2024-03-07T00:06:00;101277.41;;;4.59
85122;BMP280;75480;52.260;20.916;2024-03-07T00:07:31;101277.28;;;4.43
85122;BMP280;75480;52.260;20.916;2024-03-07T00:09:01;101287.72;;;4.48
85122;BMP280;75480;52.260;20.916;2024-03-07T00:10:33;101276.91;;;4.40
85122;BMP280;75480;52.260;20.916;2024-03-07T00:12:06;101278.75;;;4.47
85122;BMP280;75480;52.260;20.916;2024-03-07T00:13:37;101283.22;;;4.61
85122;BMP280;75480;52.260;20.916;2024-03-07T00:15:12;101292.19;;;4.61
85122;BMP280;75480;52.260;20.916;2024-03-07T00:16:43;101285.53;;;4.62
85122;BMP280;75480;52.260;20.916;2024-03-07T00:18:13;101286.50;;;4.52
85122;BMP280;75480;52.260;20.916;2024-03-07T00:19:45;101286.19;;;4.47
85122;BMP280;75480;52.260;20.916;2024-03-07T00:21:18;101280.78;;;4.43
85122;BMP280;75480;52.260;20.916;2024-03-07T00:22:48;101278.47;;;4.41
85122;BMP280;75480;52.260;20.916;2024-03-07T00:24:20;101282.91;;;4.32
85122;BMP280;75480;52.260;20.916;2024-03-07T00:25:51;101274.75;;;4.28
85122;BMP280;75480;52.260;20.916;2024-03-07T00:27:22;101281.22;;;4.15
85122;BMP280;75480;52.260;20.916;2024-03-07T00:28:52;101270.69;;;4.13
85122;BMP280;75480;52.260;20.916;2024-03-07T00:30:23;101273.38;;;4.17
85122;BMP280;75480;52.260;20.916;2024-03-07T00:31:54;101287.44;;;4.15
85122;BMP280;75480;52.260;20.916;2024-03-07T00:33:25;101280.84;;;4.13
85122;BMP280;75480;52.260;20.916;2024-03-07T00:34:56;101275.81;;;4.07
85122;BMP280;75480;52.260;20.916;2024-03-07T00:36:29;101274.34;;;4.03
85122;BMP280;75480;52.260;20.916;2024-03-07T00:38:00;101282.84;;;4.08
85122;BMP280;75480;52.260;20.916;2024-03-07T00:39:30;101278.69;;;3.97
85122;BMP280;75480;52.260;20.916;2024-03-07T00:41:01;101275.19;;;3.96
85122;BMP280;75480;52.260;20.916;2024-03-07T00:42:32;101268.72;;;3.87
85122;BMP280;75480;52.260;20.916;2024-03-07T00:44:03;101274.84;;;3.94
85122;BMP280;75480;52.260;20.916;2024-03-07T00:45:33;101276.81;;;3.94
85122;BMP280;75480;52.260;20.916;2024-03-07T00:47:04;101276.81;;;3.94
85122;BMP280;75480;52.260;20.916;2024-03-07T00:48:35;101269.72;;;3.96
85122;BMP280;75480;52.260;20.916;2024-03-07T00:50:06;101271.72;;;3.96
85122;BMP280;75480;52.260;20.916;2024-03-07T00:51:39;101269.78;;;3.93
85122;BMP280;75480;52.260;20.916;2024-03-07T00:53:10;101273.94;;;4.04
85122;BMP280;75480;52.260;20.916;2024-03-07T00:54:41;101275.25;;;3.93
85122;BMP280;75480;52.260;20.916;2024-03-07T00:56:12;101269.06;;;3.89
85122;BMP280;75480;52.260;20.916;2024-03-07T00:57:42;101268.72;;;3.83
85122;BMP280;75480;52.260;20.916;2024-03-07T00:59:13;101270.84;;;3.72
85122;BMP280;75480;52.260;20.916;2024-03-07T01:00:45;101269.06;;;3.55
85122;BMP280;75480;52.260;20.916;2024-03-07T01:02:15;101276.56;;;3.47
85122;BMP280;75480;52.260;20.916;2024-03-07T01:03:48;101264.16;;;3.42
85122;BMP280;75480;52.260;20.916;2024-03-07T01:05:19;101272.34;;;3.42
85122;BMP280;75480;52.260;20.916;2024-03-07T01:06:50;101265.34;;;3.41
85122;BMP280;75480;52.260;20.916;2024-03-07T01:08:20;101275.19;;;3.28
85122;BMP280;75480;52.260;20.916;2024-03-07T01:09:51;101273.22;;;3.29
85122;BMP280;75480;52.260;20.916;2024-03-07T01:11:22;101269.34;;;3.30
85122;BMP280;75480;52.260;20.916;2024-03-07T01:12:53;101275.16;;;3.32
85122;BMP280;75480;52.260;20.916;2024-03-07T01:14:28;101275.47;;;3.37
85122;BMP280;75480;52.260;20.916;2024-03-07T01:15:58;101270.78;;;3.41
85122;BMP280;75480;52.260;20.916;2024-03-07T01:17:29;101262.63;;;3.41
85122;BMP280;75480;52.260;20.916;2024-03-07T01:19:01;101269.56;;;3.46
85122;BMP280;75480;52.260;20.916;2024-03-07T01:20:31;101278.06;;;3.51
85122;BMP280;75480;52.260;20.916;2024-03-07T01:22:02;101280.09;;;3.47
85122;BMP280;75480;52.260;20.916;2024-03-07T01:23:33;101273.06;;;3.46
85122;BMP280;75480;52.260;20.916;2024-03-07T01:25:04;101278.84;;;3.52
85122;BMP280;75480;52.260;20.916;2024-03-07T01:26:34;101273.94;;;3.40
85122;BMP280;75480;52.260;20.916;2024-03-07T01:28:05;101286.69;;;3.46
85122;BMP280;75480;52.260;20.916;2024-03-07T01:29:36;101283.19;;;3.46
85122;BMP280;75480;52.260;20.916;2024-03-07T01:31:07;101275.56;;;3.30
85122;BMP280;75480;52.260;20.916;2024-03-07T01:32:38;101280.94;;;3.37
85122;BMP280;75480;52.260;20.916;2024-03-07T01:34:09;101273.56;;;3.34
85122;BMP280;75480;52.260;20.916;2024-03-07T01:35:39;101280.66;;;3.25
85122;BMP280;75480;52.260;20.916;2024-03-07T01:37:11;101283.41;;;3.25
85122;BMP280;75480;52.260;20.916;2024-03-07T01:38:42;101268.38;;;3.09
85122;BMP280;75480;52.260;20.916;2024-03-07T01:40:12;101280.44;;;3.12
85122;BMP280;75480;52.260;20.916;2024-03-07T01:41:45;101290.16;;;3.13
85122;BMP280;75480;52.260;20.916;2024-03-07T01:43:15;101289.75;;;3.14
85122;BMP280;75480;52.260;20.916;2024-03-07T01:44:46;101290.56;;;3.08
85122;BMP280;75480;52.260;20.916;2024-03-07T01:46:17;101290.56;;;3.11
85122;BMP280;75480;52.260;20.916;2024-03-07T01:47:48;101285.16;;;3.01
85122;BMP280;75480;52.260;20.916;2024-03-07T01:49:18;101288.69;;;2.98
85122;BMP280;75480;52.260;20.916;2024-03-07T01:50:49;101280.34;;;2.71
85122;BMP280;75480;52.260;20.916;2024-03-07T01:52:20;101288.88;;;2.73
85122;BMP280;75480;52.260;20.916;2024-03-07T01:53:53;101290.09;;;2.68
85122;BMP280;75480;52.260;20.916;2024-03-07T01:55:24;101292.00;;;2.75
85122;BMP280;75480;52.260;20.916;2024-03-07T01:56:55;101292.34;;;2.84
85122;BMP280;75480;52.260;20.916;2024-03-07T01:58:26;101291.16;;;2.81
85122;BMP280;75480;52.260;20.916;2024-03-07T01:59:57;101293.47;;;2.86
85122;BMP280;75480;52.260;20.916;2024-03-07T02:01:27;101294.28;;;2.83
85122;BMP280;75480;52.260;20.916;2024-03-07T02:02:58;101296.22;;;2.86
85122;BMP280;75480;52.260;20.916;2024-03-07T02:04:29;101282.63;;;2.79
85122;BMP280;75480;52.260;20.916;2024-03-07T02:06:00;101293.47;;;2.86
85122;BMP280;75480;52.260;20.916;2024-03-07T02:07:32;101298.13;;;2.93
85122;BMP280;75480;52.260;20.916;2024-03-07T02:09:03;101290.25;;;2.99
85122;BMP280;75480;52.260;20.916;2024-03-07T02:10:35;101295.06;;;2.84
85122;BMP280;75480;52.260;20.916;2024-03-07T02:12:06;101288.53;;;2.74
85122;BMP280;75480;52.260;20.916;2024-03-07T02:13:37;101292.16;;;2.57
85122;BMP280;75480;52.260;20.916;2024-03-07T02:15:07;101278.94;;;2.52
85122;BMP280;75480;52.260;20.916;2024-03-07T02:16:38;101286.75;;;2.46
85122;BMP280;75480;52.260;20.916;2024-03-07T02:18:10;101286.88;;;2.25
85122;BMP280;75480;52.260;20.916;2024-03-07T02:19:40;101277.22;;;2.10
85122;BMP280;75480;52.260;20.916;2024-03-07T02:21:11;101282.63;;;2.17
85122;BMP280;75480;52.260;20.916;2024-03-07T02:22:42;101283.00;;;2.22
85122;BMP280;75480;52.260;20.916;2024-03-07T02:24:12;101291.94;;;2.26
85122;BMP280;75480;52.260;20.916;2024-03-07T02:25:44;101292.66;;;2.30
85122;BMP280;75480;52.260;20.916;2024-03-07T02:27:15;101280.28;;;2.26
85122;BMP280;75480;52.260;20.916;2024-03-07T02:28:46;101288.09;;;2.20
85122;BMP280;75480;52.260;20.916;2024-03-07T02:30:16;101279.53;;;2.18
85122;BMP280;75480;52.260;20.916;2024-03-07T02:31:49;101283.06;;;2.08
85122;BMP280;75480;52.260;20.916;2024-03-07T02:33:22;101282.31;;;2.04
85122;BMP280;75480;52.260;20.916;2024-03-07T02:34:53;101292.81;;;1.91
85122;BMP280;75480;52.260;20.916;2024-03-07T02:36:24;101290.56;;;1.86
85122;BMP280;75480;52.260;20.916;2024-03-07T02:37:55;101295.56;;;1.95
85122;BMP280;75480;52.260;20.916;2024-03-07T02:39:25;101289.75;;;1.93
85122;BMP280;75480;52.260;20.916;2024-03-07T02:40:56;101290.09;;;1.91
85122;BMP280;75480;52.260;20.916;2024-03-07T02:42:28;101290.19;;;1.84
85122;BMP280;75480;52.260;20.916;2024-03-07T02:43:59;101291.34;;;1.80
85122;BMP280;75480;52.260;20.916;2024-03-07T02:45:32;101286.69;;;1.84
85122;BMP280;75480;52.260;20.916;2024-03-07T02:47:03;101298.28;;;1.88
85122;BMP280;75480;52.260;20.916;2024-03-07T02:48:34;101293.28;;;1.83
85122;BMP280;75480;52.260;20.916;2024-03-07T02:50:05;101297.97;;;1.71
85122;BMP280;75480;52.260;20.916;2024-03-07T02:51:36;101269.25;;;1.60
85122;BMP280;75480;52.260;20.916;2024-03-07T02:53:07;101290.97;;;1.70
85122;BMP280;75480;52.260;20.916;2024-03-07T02:54:38;101293.31;;;1.76
85122;BMP280;75480;52.260;20.916;2024-03-07T02:56:08;101290.63;;;1.58
85122;BMP280;75480;52.260;20.916;2024-03-07T02:57:39;101289.84;;;1.54
85122;BMP280;75480;52.260;20.916;2024-03-07T02:59:11;101287.91;;;1.43
85122;BMP280;75480;52.260;20.916;2024-03-07T03:00:41;101291.78;;;1.46
85122;BMP280;75480;52.260;20.916;2024-03-07T03:02:12;101288.69;;;1.40
85122;BMP280;75480;52.260;20.916;2024-03-07T03:03:43;101289.50;;;1.34
85122;BMP280;75480;52.260;20.916;2024-03-07T03:05:15;101293.38;;;1.26
85122;BMP280;75480;52.260;20.916;2024-03-07T03:06:45;101288.75;;;1.33
85122;BMP280;75480;52.260;20.916;2024-03-07T03:08:17;101276.31;;;1.25
85122;BMP280;75480;52.260;20.916;2024-03-07T03:09:48;101270.13;;;1.18
85122;BMP280;75480;52.260;20.916;2024-03-07T03:11:20;101280.59;;;1.30
85122;BMP280;75480;52.260;20.916;2024-03-07T03:12:55;101292.63;;;1.29
85122;BMP280;75480;52.260;20.916;2024-03-07T03:14:28;101292.22;;;1.23
85122;BMP280;75480;52.260;20.916;2024-03-07T03:15:58;101283.72;;;1.21
85122;BMP280;75480;52.260;20.916;2024-03-07T03:17:29;101268.97;;;1.15
85122;BMP280;75480;52.260;20.916;2024-03-07T03:19:01;101285.66;;;1.10
85122;BMP280;75480;52.260;20.916;2024-03-07T03:20:31;101295.75;;;1.20
85122;BMP280;75480;52.260;20.916;2024-03-07T03:22:05;101293.41;;;1.11
85122;BMP280;75480;52.260;20.916;2024-03-07T03:23:35;101288.75;;;1.01
85122;BMP280;75480;52.260;20.916;2024-03-07T03:25:06;101289.50;;;1.16
85122;BMP280;75480;52.260;20.916;2024-03-07T03:26:37;101269.34;;;0.92
85122;BMP280;75480;52.260;20.916;2024-03-07T03:28:08;101283.72;;;1.03
85122;BMP280;75480;52.260;20.916;2024-03-07T03:29:42;101284.47;;;1.04
85122;BMP280;75480;52.260;20.916;2024-03-07T03:31:13;101294.56;;;1.07
85122;BMP280;75480;52.260;20.916;2024-03-07T03:32:45;101300.00;;;1.10
85122;BMP280;75480;52.260;20.916;2024-03-07T03:34:17;101302.31;;;1.01
85122;BMP280;75480;52.260;20.916;2024-03-07T03:35:47;101285.63;;;0.85
85122;BMP280;75480;52.260;20.916;2024-03-07T03:37:18;101280.19;;;0.89
85122;BMP280;75480;52.260;20.916;2024-03-07T03:38:49;101305.03;;;0.98
85122;BMP280;75480;52.260;20.916;2024-03-07T03:40:20;101299.22;;;0.92
85122;BMP280;75480;52.260;20.916;2024-03-07T03:41:50;101301.91;;;0.89
85122;BMP280;75480;52.260;20.916;2024-03-07T03:43:21;101303.06;;;0.91
85122;BMP280;75480;52.260;20.916;2024-03-07T03:44:52;101306.56;;;0.84
85122;BMP280;75480;52.260;20.916;2024-03-07T03:46:23;101307.34;;;0.89
85122;BMP280;75480;52.260;20.916;2024-03-07T03:47:54;101306.19;;;0.82
85122;BMP280;75480;52.260;20.916;2024-03-07T03:49:25;101310.81;;;0.82
85122;BMP280;75480;52.260;20.916;2024-03-07T03:50:55;101309.66;;;0.76
85122;BMP280;75480;52.260;20.916;2024-03-07T03:52:26;101308.84;;;0.68
85122;BMP280;75480;52.260;20.916;2024-03-07T03:53:57;101301.88;;;0.71
85122;BMP280;75480;52.260;20.916;2024-03-07T03:55:28;101301.88;;;0.67
85122;BMP280;75480;52.260;20.916;2024-03-07T03:56:58;101304.59;;;0.71
85122;BMP280;75480;52.260;20.916;2024-03-07T03:58:30;101296.44;;;0.64
85122;BMP280;75480;52.260;20.916;2024-03-07T04:00:00;101303.03;;;0.55
85122;BMP280;75480;52.260;20.916;2024-03-07T04:01:31;101312.72;;;0.60
85122;BMP280;75480;52.260;20.916;2024-03-07T04:03:02;101310.03;;;0.67
85122;BMP280;75480;52.260;20.916;2024-03-07T04:04:32;101303.03;;;0.70
85122;BMP280;75480;52.260;20.916;2024-03-07T04:06:03;101304.59;;;0.71
85122;BMP280;75480;52.260;20.916;2024-03-07T04:07:36;101304.56;;;0.56
85122;BMP280;75480;52.260;20.916;2024-03-07T04:09:06;101306.91;;;0.58
85122;BMP280;75480;52.260;20.916;2024-03-07T04:10:37;101304.19;;;0.62
85122;BMP280;75480;52.260;20.916;2024-03-07T04:12:09;101300.25;;;0.45
85122;BMP280;75480;52.260;20.916;2024-03-07T04:13:45;101306.44;;;0.45
85122;BMP280;75480;52.260;20.916;2024-03-07T04:15:16;101298.72;;;0.47
85122;BMP280;75480;52.260;20.916;2024-03-07T04:16:47;101307.63;;;0.37
85122;BMP280;75480;52.260;20.916;2024-03-07T04:18:17;101310.69;;;0.36
85122;BMP280;75480;52.260;20.916;2024-03-07T04:19:48;101303.75;;;0.42
85122;BMP280;75480;52.260;20.916;2024-03-07T04:21:19;101301.00;;;0.35
85122;BMP280;75480;52.260;20.916;2024-03-07T04:22:49;101300.66;;;0.43
85122;BMP280;75480;52.260;20.916;2024-03-07T04:24:21;101300.25;;;0.38
85122;BMP280;75480;52.260;20.916;2024-03-07T04:25:52;101314.56;;;0.35
85122;BMP280;75480;52.260;20.916;2024-03-07T04:27:23;101305.66;;;0.34
85122;BMP280;75480;52.260;20.916;2024-03-07T04:28:56;101297.53;;;0.31
85122;BMP280;75480;52.260;20.916;2024-03-07T04:30:28;101300.22;;;0.27
85122;BMP280;75480;52.260;20.916;2024-03-07T04:32:00;101312.63;;;0.24
85122;BMP280;75480;52.260;20.916;2024-03-07T04:33:34;101311.06;;;0.23
85122;BMP280;75480;52.260;20.916;2024-03-07T04:35:05;101287.41;;;0.13
85122;BMP280;75480;52.260;20.916;2024-03-07T04:36:40;101318.06;;;0.32
85122;BMP280;75480;52.260;20.916;2024-03-07T04:38:11;101314.94;;;0.19
85122;BMP280;75480;52.260;20.916;2024-03-07T04:39:45;101314.47;;;0.06
85122;BMP280;75480;52.260;20.916;2024-03-07T04:41:16;101314.88;;;0.08
85122;BMP280;75480;52.260;20.916;2024-03-07T04:42:47;101309.44;;;0.08
85122;BMP280;75480;52.260;20.916;2024-03-07T04:44:21;101289.25;;;-0.02
85122;BMP280;75480;52.260;20.916;2024-03-07T04:45:52;101306.78;;;0.15
85122;BMP280;75480;52.260;20.916;2024-03-07T04:47:23;101310.59;;;0.07
85122;BMP280;75480;52.260;20.916;2024-03-07T04:48:54;101303.28;;;0.11
85122;BMP280;75480;52.260;20.916;2024-03-07T04:50:24;101313.34;;;0.18
85122;BMP280;75480;52.260;20.916;2024-03-07T04:51:58;101313.00;;;0.19
85122;BMP280;75480;52.260;20.916;2024-03-07T04:53:29;101307.56;;;0.19
85122;BMP280;75480;52.260;20.916;2024-03-07T04:55:00;101316.09;;;0.21
85122;BMP280;75480;52.260;20.916;2024-03-07T04:56:30;101307.16;;;0.14
85122;BMP280;75480;52.260;20.916;2024-03-07T04:58:01;101316.88;;;0.18
85122;BMP280;75480;52.260;20.916;2024-03-07T04:59:32;101307.50;;;0.09
85122;BMP280;75480;52.260;20.916;2024-03-07T05:01:03;101282.25;;;-0.10
85122;BMP280;75480;52.260;20.916;2024-03-07T05:02:34;101314.50;;;0.10
85122;BMP280;75480;52.260;20.916;2024-03-07T05:04:05;101318.00;;;0.14
85122;BMP280;75480;52.260;20.916;2024-03-07T05:05:36;101320.72;;;0.17
85122;BMP280;75480;52.260;20.916;2024-03-07T05:07:07;101323.06;;;0.19
85122;BMP280;75480;52.260;20.916;2024-03-07T05:08:37;101323.03;;;0.15
85122;BMP280;75480;52.260;20.916;2024-03-07T05:10:08;101325.34;;;0.13
85122;BMP280;75480;52.260;20.916;2024-03-07T05:11:39;101323.00;;;0.08
85122;BMP280;75480;52.260;20.916;2024-03-07T05:13:10;101324.94;;;0.08
85122;BMP280;75480;52.260;20.916;2024-03-07T05:14:41;101314.09;;;0.08
85122;BMP280;75480;52.260;20.916;2024-03-07T05:16:12;101319.16;;;0.16
85122;BMP280;75480;52.260;20.916;2024-03-07T05:17:42;101330.06;;;0.27
85122;BMP280;75480;52.260;20.916;2024-03-07T05:19:13;101325.41;;;0.35
85122;BMP280;75480;52.260;20.916;2024-03-07T05:20:44;101323.50;;;0.28
85122;BMP280;75480;52.260;20.916;2024-03-07T05:22:15;101330.84;;;0.31
85122;BMP280;75480;52.260;20.916;2024-03-07T05:23:46;101339.00;;;0.31
85122;BMP280;75480;52.260;20.916;2024-03-07T05:25:17;101329.28;;;0.34
85122;BMP280;75480;52.260;20.916;2024-03-07T05:26:49;101326.59;;;0.30
85122;BMP280;75480;52.260;20.916;2024-03-07T05:28:19;101341.34;;;0.47
85122;BMP280;75480;52.260;20.916;2024-03-07T05:29:52;101331.69;;;0.56
85122;BMP280;75480;52.260;20.916;2024-03-07T05:31:23;101343.75;;;0.66
85122;BMP280;75480;52.260;20.916;2024-03-07T05:32:53;101336.38;;;0.67
85122;BMP280;75480;52.260;20.916;2024-03-07T05:34:24;101340.63;;;0.61
85122;BMP280;75480;52.260;20.916;2024-03-07T05:35:58;101342.19;;;0.65
85122;BMP280;75480;52.260;20.916;2024-03-07T05:37:43;101346.84;;;0.68
85122;BMP280;75480;52.260;20.916;2024-03-07T05:39:17;101324.34;;;0.64
85122;BMP280;75480;52.260;20.916;2024-03-07T05:40:48;101344.94;;;0.79
85122;BMP280;75480;52.260;20.916;2024-03-07T05:42:19;101348.41;;;0.80
85122;BMP280;75480;52.260;20.916;2024-03-07T05:43:50;101322.06;;;0.77
85122;BMP280;75480;52.260;20.916;2024-03-07T05:45:21;101341.47;;;0.82
85122;BMP280;75480;52.260;20.916;2024-03-07T05:46:53;101339.13;;;0.88
85122;BMP280;75480;52.260;20.916;2024-03-07T05:48:24;101332.16;;;0.83
85122;BMP280;75480;52.260;20.916;2024-03-07T05:49:55;101346.88;;;0.90
85122;BMP280;75480;52.260;20.916;2024-03-07T05:51:26;101343.78;;;0.91
85122;BMP280;75480;52.260;20.916;2024-03-07T05:52:57;101347.69;;;0.94
85122;BMP280;75480;52.260;20.916;2024-03-07T05:54:27;101357.75;;;0.90
85122;BMP280;75480;52.260;20.916;2024-03-07T05:55:59;101344.94;;;0.83
85122;BMP280;75480;52.260;20.916;2024-03-07T05:57:30;101353.09;;;0.90
85122;BMP280;75480;52.260;20.916;2024-03-07T05:59:05;101347.31;;;1.02
85122;BMP280;75480;52.260;20.916;2024-03-07T06:00:37;101348.50;;;1.19
85122;BMP280;75480;52.260;20.916;2024-03-07T06:02:08;101357.78;;;1.47
85122;BMP280;75480;52.260;20.916;2024-03-07T06:03:39;101354.97;;;1.89
85122;BMP280;75480;52.260;20.916;2024-03-07T06:05:10;101363.84;;;2.18
85122;BMP280;75480;52.260;20.916;2024-03-07T06:06:46;101358.22;;;2.54
85122;BMP280;75480;52.260;20.916;2024-03-07T06:08:18;101362.16;;;2.49
85122;BMP280;75480;52.260;20.916;2024-03-07T06:09:48;101362.91;;;2.57
85122;BMP280;75480;52.260;20.916;2024-03-07T06:11:21;101361.78;;;2.47
85122;BMP280;75480;52.260;20.916;2024-03-07T06:12:54;101353.78;;;2.85
85122;BMP280;75480;52.260;20.916;2024-03-07T06:14:25;101370.81;;;2.96
85122;BMP280;75480;52.260;20.916;2024-03-07T06:15:56;101364.53;;;3.03
85122;BMP280;75480;52.260;20.916;2024-03-07T06:17:26;101350.25;;;2.88
85122;BMP280;75480;52.260;20.916;2024-03-07T06:18:57;101362.03;;;2.74
85122;BMP280;75480;52.260;20.916;2024-03-07T06:20:28;101360.19;;;2.57
85122;BMP280;75480;52.260;20.916;2024-03-07T06:21:58;101362.50;;;2.58
85122;BMP280;75480;52.260;20.916;2024-03-07T06:23:29;101354.78;;;2.46
85122;BMP280;75480;52.260;20.916;2024-03-07T06:25:00;101359.81;;;2.51
85122;BMP280;75480;52.260;20.916;2024-03-07T06:26:38;101371.06;;;2.53
85122;BMP280;75480;52.260;20.916;2024-03-07T06:28:12;101372.53;;;2.69
85122;BMP280;75480;52.260;20.916;2024-03-07T06:29:43;101365.06;;;2.87
85122;BMP280;75480;52.260;20.916;2024-03-07T06:31:14;101372.41;;;2.90
85122;BMP280;75480;52.260;20.916;2024-03-07T06:32:44;101332.50;;;2.66
85122;BMP280;75480;52.260;20.916;2024-03-07T06:34:15;101364.69;;;2.81
85122;BMP280;75480;52.260;20.916;2024-03-07T06:35:46;101356.19;;;2.72
85122;BMP280;75480;52.260;20.916;2024-03-07T06:37:16;101373.75;;;2.64
85122;BMP280;75480;52.260;20.916;2024-03-07T06:38:49;101367.59;;;2.49
85122;BMP280;75480;52.260;20.916;2024-03-07T06:40:20;101365.91;;;2.70
85122;BMP280;75480;52.260;20.916;2024-03-07T06:41:52;101374.81;;;2.81
85122;BMP280;75480;52.260;20.916;2024-03-07T06:43:23;101365.91;;;2.70
85122;BMP280;75480;52.260;20.916;2024-03-07T06:44:54;101365.94;;;2.66
85122;BMP280;75480;52.260;20.916;2024-03-07T06:46:24;101350.84;;;2.58
85122;BMP280;75480;52.260;20.916;2024-03-07T06:47:55;101377.66;;;2.59
85122;BMP280;75480;52.260;20.916;2024-03-07T06:49:26;101383.22;;;3.01
85122;BMP280;75480;52.260;20.916;2024-03-07T06:50:58;101371.84;;;3.16
85122;BMP280;75480;52.260;20.916;2024-03-07T06:52:29;101377.81;;;3.49
85122;BMP280;75480;52.260;20.916;2024-03-07T06:54:00;101367.47;;;4.05
85122;BMP280;75480;52.260;20.916;2024-03-07T06:55:30;101361.66;;;4.33
85122;BMP280;75480;52.260;20.916;2024-03-07T06:57:01;101365.09;;;4.64
85122;BMP280;75480;52.260;20.916;2024-03-07T06:58:33;101371.25;;;4.72
85122;BMP280;75480;52.260;20.916;2024-03-07T07:00:04;101370.00;;;5.04
85122;BMP280;75480;52.260;20.916;2024-03-07T07:01:41;101374.06;;;5.15
85122;BMP280;75480;52.260;20.916;2024-03-07T07:03:13;101372.28;;;5.52
85122;BMP280;75480;52.260;20.916;2024-03-07T07:04:44;101381.09;;;5.59
85122;BMP280;75480;52.260;20.916;2024-03-07T07:06:18;101370.09;;;5.43
85122;BMP280;75480;52.260;20.916;2024-03-07T07:07:49;101376.16;;;5.31
85122;BMP280;75480;52.260;20.916;2024-03-07T07:09:21;101376.31;;;5.20
85122;BMP280;75480;52.260;20.916;2024-03-07T07:10:53;101374.78;;;5.62
85122;BMP280;75480;52.260;20.916;2024-03-07T07:12:24;101380.97;;;6.06
85122;BMP280;75480;52.260;20.916;2024-03-07T07:13:55;101382.13;;;6.61
85122;BMP280;75480;52.260;20.916;2024-03-07T07:15:26;101374.00;;;6.90
85122;BMP280;75480;52.260;20.916;2024-03-07T07:16:56;101369.97;;;6.46
85122;BMP280;75480;52.260;20.916;2024-03-07T07:18:27;101379.34;;;6.09
85122;BMP280;75480;52.260;20.916;2024-03-07T07:19:58;101376.22;;;6.63
85122;BMP280;75480;52.260;20.916;2024-03-07T07:21:29;101382.06;;;6.81
85122;BMP280;75480;52.260;20.916;2024-03-07T07:23:00;101390.03;;;7.53
85122;BMP280;75480;52.260;20.916;2024-03-07T07:24:32;101395.00;;;8.00
85122;BMP280;75480;52.260;20.916;2024-03-07T07:26:05;101387.09;;;8.14
85122;BMP280;75480;52.260;20.916;2024-03-07T07:27:36;101387.41;;;8.04
85122;BMP280;75480;52.260;20.916;2024-03-07T07:29:08;101390.19;;;8.17
85122;BMP280;75480;52.260;20.916;2024-03-07T07:30:40;101370.50;;;7.06
85122;BMP280;75480;52.260;20.916;2024-03-07T07:32:10;101388.63;;;7.00
85122;BMP280;75480;52.260;20.916;2024-03-07T07:33:42;101381.63;;;6.66
85122;BMP280;75480;52.260;20.916;2024-03-07T07:35:14;101373.47;;;6.63
85122;BMP280;75480;52.260;20.916;2024-03-07T07:36:45;101368.50;;;5.85
85122;BMP280;75480;52.260;20.916;2024-03-07T07:38:16;101375.09;;;5.88
85122;BMP280;75480;52.260;20.916;2024-03-07T07:39:47;101375.94;;;5.85
85122;BMP280;75480;52.260;20.916;2024-03-07T07:41:17;101376.53;;;5.92
85122;BMP280;75480;52.260;20.916;2024-03-07T07:42:50;101383.97;;;6.12
85122;BMP280;75480;52.260;20.916;2024-03-07T07:44:21;101389.34;;;6.71
85122;BMP280;75480;52.260;20.916;2024-03-07T07:45:53;101374.91;;;7.32
85122;BMP280;75480;52.260;20.916;2024-03-07T07:47:24;101378.16;;;7.11
85122;BMP280;75480;52.260;20.916;2024-03-07T07:48:54;101400.38;;;7.33
85122;BMP280;75480;52.260;20.916;2024-03-07T07:50:25;101368.69;;;6.83
85122;BMP280;75480;52.260;20.916;2024-03-07T07:51:56;101391.94;;;7.40
85122;BMP280;75480;52.260;20.916;2024-03-07T07:53:27;101391.72;;;7.76
85122;BMP280;75480;52.260;20.916;2024-03-07T07:54:57;101389.91;;;7.28
85122;BMP280;75480;52.260;20.916;2024-03-07T07:56:28;101374.53;;;6.33
85122;BMP280;75480;52.260;20.916;2024-03-07T07:58:00;101375.31;;;6.33
85122;BMP280;75480;52.260;20.916;2024-03-07T07:59:34;101382.75;;;6.69
85122;BMP280;75480;52.260;20.916;2024-03-07T08:01:05;101388.00;;;6.96
85122;BMP280;75480;52.260;20.916;2024-03-07T08:02:38;101381.69;;;7.28
85122;BMP280;75480;52.260;20.916;2024-03-07T08:04:09;101383.16;;;7.32
85122;BMP280;75480;52.260;20.916;2024-03-07T08:05:40;101398.59;;;7.55
85122;BMP280;75480;52.260;20.916;2024-03-07T08:07:11;101389.03;;;7.89
85122;BMP280;75480;52.260;20.916;2024-03-07T08:08:42;101393.44;;;7.99
85122;BMP280;75480;52.260;20.916;2024-03-07T08:10:13;101388.00;;;8.62
85122;BMP280;75480;52.260;20.916;2024-03-07T08:11:44;101390.03;;;8.96
85122;BMP280;75480;52.260;20.916;2024-03-07T08:13:14;101396.94;;;9.35
85122;BMP280;75480;52.260;20.916;2024-03-07T08:14:45;101396.53;;;9.68
85122;BMP280;75480;52.260;20.916;2024-03-07T08:16:16;101390.53;;;9.38
85122;BMP280;75480;52.260;20.916;2024-03-07T08:17:48;101392.00;;;9.74
85122;BMP280;75480;52.260;20.916;2024-03-07T08:19:19;101383.78;;;10.54
85122;BMP280;75480;52.260;20.916;2024-03-07T08:20:50;101388.28;;;10.79
85122;BMP280;75480;52.260;20.916;2024-03-07T08:22:21;101387.88;;;10.00
85122;BMP280;75480;52.260;20.916;2024-03-07T08:23:52;101382.75;;;9.02
85122;BMP280;75480;52.260;20.916;2024-03-07T08:25:26;101386.34;;;9.99
85122;BMP280;75480;52.260;20.916;2024-03-07T08:26:57;101392.59;;;9.47
85122;BMP280;75480;52.260;20.916;2024-03-07T08:28:28;101383.59;;;9.99
85122;BMP280;75480;52.260;20.916;2024-03-07T08:29:59;101398.56;;;10.38
85122;BMP280;75480;52.260;20.916;2024-03-07T08:31:29;101393.66;;;10.83
85122;BMP280;75480;52.260;20.916;2024-03-07T08:33:00;101403.22;;;10.42
85122;BMP280;75480;52.260;20.916;2024-03-07T08:34:33;101396.91;;;10.01
85122;BMP280;75480;52.260;20.916;2024-03-07T08:36:04;101386.59;;;10.82
85122;BMP280;75480;52.260;20.916;2024-03-07T08:37:36;101408.28;;;10.43
85122;BMP280;75480;52.260;20.916;2024-03-07T08:39:07;101409.19;;;11.86